20:30
Airports
History
Links
Donate
Help keep this website running!
PayPal
Bitcoin
Information on this page is community maintained and may be outdated or inaccurate and is intended for reference only or PC simulator navigating.
Always use approved charts for navigating.
EDLN
Monchengladbach
Monchengladbach (EDLN)
Mönchengladbach, Nordrhein-Westfalen, Germany (41066)
(C)
Lat/Lng:51° 13' 49.28" N / 6° 30' 16.19" E
51.230356 / 6.504496
Elevation:125'ft 38mMSL
ID / ICAO:EDLN
Runways:1
Longest:(13-31) 1,190.9m 3,907ft Asphalt
Controlled:Yes
Distance To
Airport ID:
Airport Radio Frequencies
Ground: 121.92
Tower: 118.12
Approach: 133.77
Nearby VORs <50NM
Nearby NDBs
METARUpdated 05-28-17 18:50 GMT
Altimeter: 30.00
Visibility: 6.2 statute miles
Wind: 4 knots (350°)
Temp: 25°c 77°f
Humidity: 69.4%

METAR: EDLN 281850Z 35004KT CAVOK 25/19 Q1016

(Powered by phpweather)
Runway 13 / 31
Dimensions:1190.9 x 29.9m 3907' x 98'ft
Surface:Asphalt
Edge Lights:Medium intensity
Runway 13 [A]Runway 31 [B]
Heading:128°TH 308°TH
Lat:
Lng:
51° 14' 1.4"N
6° 29' 52.03"E
51° 13' 37.16"N
6° 30' 40.34"E
TDZ:Yes, lighted
User Notes and Comments
Google Map
Nearby Airports
(C) Krefeld Egelsberg 11.4 NM
EDLK NNE 19°
(C) Duesseldorf 12.1 NM
EDDL (WX) ENE 70°
(U) Essen Mulheim 22.2 NM
EDLE ENE 57°
(C) GEILENKIRCHEN 27.4 NM
ETNG (WX) SW 227°
(C) NORVENICH 28.4 NM
ETNN (WX) SSE 166°
(C) NIEDERRHEIN 30.1 NM
EDLV NNW 328°
(C) Dinslaken Schwarze Heide 30.9 NM
EDLD NNE 30°
VFR Chart
Flight Planning at SkyVector.com